createdAt,value
2023-01-11T00:10:43.952Z,99731.80
2023-01-11T00:25:47.897Z,99734.29
2023-01-11T00:40:51.882Z,99718.78
2023-01-11T00:55:55.638Z,99702.88
2023-01-11T01:10:59.916Z,99688.80
2023-01-11T01:26:04.340Z,99670.65
2023-01-11T01:41:08.611Z,99663.52
2023-01-11T01:56:14.911Z,99646.77
2023-01-11T02:11:30.908Z,99626.38
2023-01-11T02:26:34.930Z,99600.53
2023-01-11T02:42:06.471Z,99590.59
2023-01-11T02:57:10.523Z,99569.79
2023-01-11T03:12:32.838Z,99540.59
2023-01-11T03:27:46.338Z,99520.37
2023-01-11T03:43:09.813Z,99497.79
2023-01-11T03:58:13.922Z,99472.77
2023-01-11T04:13:18.025Z,99463.34
2023-01-11T04:28:21.921Z,99442.45
2023-01-11T04:43:25.907Z,99426.08
2023-01-11T04:58:29.983Z,99417.33
2023-01-11T05:13:43.012Z,99405.61
2023-01-11T05:28:47.297Z,99406.21
2023-01-11T05:44:10.705Z,99386.73
2023-01-11T05:59:14.735Z,99360.20
2023-01-11T06:14:19.218Z,99341.21
2023-01-11T06:29:23.424Z,99333.08
2023-01-11T06:44:28.983Z,99334.38
2023-01-11T06:59:33.377Z,99328.77
2023-01-11T07:14:38.493Z,99318.42
2023-01-11T07:29:42.740Z,99293.73
2023-01-11T07:44:48.194Z,99291.64
2023-01-11T07:59:53.190Z,99289.09
2023-01-11T08:14:58.425Z,99278.61
2023-01-11T08:30:02.790Z,99280.35
2023-01-11T08:45:08.351Z,99277.07
2023-01-11T09:00:12.858Z,99271.36
2023-01-11T09:15:17.653Z,99272.13
2023-01-11T09:30:23.161Z,99266.00
2023-01-11T09:45:35.976Z,99241.68
2023-01-11T10:00:40.931Z,99231.42
2023-01-11T10:18:23.131Z,99208.61
2023-01-11T10:31:49.532Z,99194.11
2023-01-11T10:46:53.937Z,99179.79
2023-01-11T11:02:12.817Z,99163.80
2023-01-11T11:17:17.314Z,99151.58
2023-01-11T11:32:25.700Z,99140.77
2023-01-11T11:47:30.381Z,99116.02
2023-01-11T12:02:37.662Z,99090.61
2023-01-11T12:17:45.750Z,99074.96
2023-01-11T12:32:54.359Z,99048.17
2023-01-11T12:48:18.189Z,99034.92
2023-01-11T13:03:31.567Z,99014.09
2023-01-11T13:18:49.924Z,99000.95
2023-01-11T13:33:58.164Z,98991.87
2023-01-11T13:49:21.917Z,98984.94
2023-01-11T14:04:42.548Z,98981.62
2023-01-11T14:19:50.037Z,98988.30
2023-01-11T14:35:03.556Z,98996.75
2023-01-11T14:50:15.691Z,98981.48
2023-01-11T15:05:32.298Z,98973.92
2023-01-11T15:20:37.028Z,98970.87
2023-01-11T15:35:41.261Z,98962.73
2023-01-11T15:51:19.096Z,98974.59
2023-01-11T16:06:46.739Z,98977.65
2023-01-11T16:21:59.805Z,98978.20
2023-01-11T16:37:15.078Z,98964.71
2023-01-11T16:52:28.210Z,98983.67
2023-01-11T17:07:32.562Z,98994.30
2023-01-11T17:22:36.995Z,99000.40
2023-01-11T17:37:41.901Z,99007.77
2023-01-11T17:52:54.491Z,99027.66
2023-01-11T18:07:59.752Z,99036.80
2023-01-11T18:23:12.751Z,99046.77
2023-01-11T18:38:17.435Z,99053.09
2023-01-11T18:53:24.130Z,99065.35
2023-01-11T19:08:30.105Z,99081.88
2023-01-11T19:23:35.073Z,99105.19
2023-01-11T19:38:40.314Z,99119.34
2023-01-11T19:53:44.781Z,99134.48
2023-01-11T20:08:51.420Z,99143.27
2023-01-11T20:23:57.989Z,99165.08
2023-01-11T20:39:03.466Z,99181.02
2023-01-11T20:54:08.136Z,99180.55
2023-01-11T21:09:13.774Z,99189.55
2023-01-11T21:24:18.929Z,99197.59
2023-01-11T21:39:23.179Z,99218.48
2023-01-11T21:54:27.786Z,99234.99
2023-01-11T22:09:34.799Z,99244.55
2023-01-11T22:24:39.651Z,99252.48
2023-01-11T22:39:44.189Z,99267.72
2023-01-11T22:54:48.785Z,99279.38
2023-01-11T23:09:53.028Z,99291.70
2023-01-11T23:24:57.557Z,99296.78
2023-01-11T23:40:01.924Z,99317.91
2023-01-11T23:55:07.437Z,99327.48
